Terminal Aerodrome Forecast
Issued by NWS

Home | Current Version | Previous Version | Text Only | Print | Product List | Glossary On
Versions: 1 2 3 4 5 6 7 8 9 10 11 12 13 14 15 16 17 18 19 20 21 22 23 24 25 26 27 28 29 30 31 32 33 34 35 36 37 38
000
FTUS44 KMOB 182337
TAFBFM
TAF
KBFM 182337Z 1900/1924 17005KT P6SM FEW020 SCT150
     FM190200 17006KT 5SM BR OVC010
     FM190600 17004KT 2SM BR OVC004
      TEMPO 1906/1910 1/2SM FG VV003
     FM191200 17012KT 5SM BR VCSH OVC015
     FM191500 18015G22KT 5SM BR VCSH OVC015 PROB30 1916/1920 3SM
      TSRA BKN012CB=

USA.gov is the U.S. government's official web portal to all federal, state and local government web resources and services.